Time;durP1;ratioP1;P1;durP2;ratioP2;P2;SDS_P1;SDS_P2;PMS_P1;PMS_P2;Temp;Humidity;BMP_temperature;BMP_pressure;BME280_temperature;BME280_humidity;BME280_pressure;Samples;Min_cycle;Max_cycle;Signal;HPM_P1;HPM_P2
2022/03/21 00:00:56;;;;;;;;;54.50;45.25;;;;;26.23;21.39;102218.44;5056398;28;45316;-74
2022/03/21 00:03:24;;;;;;;;;57.25;44.50;;;;;26.21;21.30;102213.97;5055692;28;46088;-73
2022/03/21 00:05:50;;;;;;;;;60.75;49.00;;;;;26.19;21.71;102203.13;5056074;28;45459;-74
2022/03/21 00:08:17;;;;;;;;;59.25;47.75;;;;;26.13;21.09;102181.47;5056121;28;45512;-73
2022/03/21 00:10:44;;;;;;;;;58.00;48.50;;;;;26.26;21.43;102204.75;5054649;28;45495;-73
2022/03/21 00:13:12;;;;;;;;;54.25;45.50;;;;;26.23;21.56;102212.09;5055813;28;46229;-73
2022/03/21 00:15:38;;;;;;;;;60.00;49.25;;;;;26.09;21.39;102194.28;5055610;28;45499;-74
2022/03/21 00:18:04;;;;;;;;;54.25;46.00;;;;;26.23;21.43;102213.00;5055877;28;45413;-74
2022/03/21 00:20:31;;;;;;;;;64.00;51.00;;;;;26.30;21.42;102203.75;5055448;28;45441;-73
2022/03/21 00:22:57;;;;;;;;;64.75;49.25;;;;;26.33;21.51;102205.50;5055661;28;46399;-73
2022/03/21 00:25:24;;;;;;;;;56.75;46.75;;;;;26.15;21.73;102212.28;5055539;28;45361;-74
2022/03/21 00:27:49;;;;;;;;;61.50;49.75;;;;;25.99;21.40;102188.13;5055824;28;45474;-74
2022/03/21 00:30:15;;;;;;;;;61.75;48.50;;;;;25.49;21.61;102105.88;5055769;28;45619;-74
2022/03/21 00:32:42;;;;;;;;;61.25;49.50;;;;;25.97;21.39;102189.97;5055066;28;46050;-74
2022/03/21 00:35:09;;;;;;;;;63.00;50.25;;;;;25.74;21.87;102159.66;5055533;28;45492;-74
2022/03/21 00:37:37;;;;;;;;;62.50;50.25;;;;;26.01;21.36;102205.31;5055514;28;45349;-74
2022/03/21 00:40:05;;;;;;;;;63.75;48.25;;;;;26.04;21.61;102208.91;5055743;28;45230;-73
2022/03/21 00:42:34;;;;;;;;;57.25;47.25;;;;;25.78;21.85;102177.69;5055516;28;45885;-73
2022/03/21 00:45:00;;;;;;;;;56.25;45.25;;;;;25.89;22.05;102201.94;5055457;28;45466;-74
2022/03/21 00:47:25;;;;;;;;;57.75;44.25;;;;;25.92;21.90;102202.78;5055090;28;45357;-74
2022/03/21 00:49:52;;;;;;;;;57.25;45.50;;;;;25.89;22.03;102212.81;5055445;28;45548;-73
2022/03/21 00:52:18;;;;;;;;;58.75;47.75;;;;;25.60;21.77;102154.56;5055478;28;45497;-74
2022/03/21 00:54:45;;;;;;;;;59.25;45.75;;;;;25.81;21.78;102172.22;5055149;28;45396;-74
2022/03/21 00:57:10;;;;;;;;;59.25;48.00;;;;;25.75;21.90;102167.81;5055587;28;45438;-74
2022/03/21 00:59:36;;;;;;;;;59.25;46.50;;;;;25.51;21.94;102140.25;5055097;28;45568;-74
2022/03/21 01:02:01;;;;;;;;;61.00;50.50;;;;;25.95;21.59;102208.16;5054988;28;46121;-73
2022/03/21 01:04:26;;;;;;;;;60.25;48.50;;;;;25.31;21.54;102091.72;5055301;28;45435;-73
2022/03/21 01:06:52;;;;;;;;;64.25;48.50;;;;;25.77;22.24;102176.81;5055356;28;45285;-73
2022/03/21 01:09:17;;;;;;;;;62.00;50.50;;;;;25.95;21.62;102199.06;5055237;28;45561;-74
2022/03/21 01:11:44;;;;;;;;;60.00;46.00;;;;;25.61;21.87;102143.66;5054987;28;45494;-73
2022/03/21 01:14:10;;;;;;;;;62.75;50.50;;;;;25.93;21.98;102204.56;5055244;28;45410;-73
2022/03/21 01:16:37;;;;;;;;;63.50;50.50;;;;;25.96;21.75;102209.03;5054713;28;45342;-73
2022/03/21 01:19:03;;;;;;;;;64.00;48.00;;;;;26.01;21.63;102208.03;5053814;28;45597;-73
2022/03/21 01:21:32;;;;;;;;;56.25;46.25;;;;;25.96;21.61;102209.94;5054224;28;46168;-73
2022/03/21 01:23:58;;;;;;;;;63.75;52.50;;;;;25.96;21.63;102199.06;5055136;28;45523;-73
2022/03/21 01:26:23;;;;;;;;;62.00;47.50;;;;;25.92;21.83;102191.91;5054990;28;45305;-73
2022/03/21 01:28:49;;;;;;;;;60.25;47.00;;;;;26.13;22.05;102209.59;5054912;28;45539;-73
2022/03/21 01:31:14;;;;;;;;;62.50;50.00;;;;;26.06;21.74;102196.16;5054772;28;46145;-73
2022/03/21 01:33:41;;;;;;;;;59.00;47.75;;;;;26.20;21.72;102213.03;5054734;28;45498;-73
2022/03/21 01:36:07;;;;;;;;;58.75;47.25;;;;;26.05;21.66;102172.59;5055317;28;45457;-74
2022/03/21 01:38:32;;;;;;;;;61.25;48.75;;;;;26.09;21.59;102182.47;5054687;28;45674;-73
2022/03/21 01:40:57;;;;;;;;;57.75;46.75;;;;;26.17;21.60;102205.88;5054668;28;45403;-74
2022/03/21 01:43:23;;;;;;;;;61.50;48.00;;;;;26.25;21.83;102207.53;5054947;28;45564;-74
2022/03/21 01:45:48;;;;;;;;;56.75;46.25;;;;;26.16;21.79;102184.13;5054298;28;45412;-74
2022/03/21 01:48:14;;;;;;;;;56.25;45.25;;;;;26.35;21.46;102206.34;5054967;28;45420;-73
2022/03/21 01:50:42;;;;;;;;;63.00;49.75;;;;;26.33;21.47;102203.69;5054515;28;45518;-74
2022/03/21 01:55:56;;;;;;;;;59.50;48.25;;;;;25.98;21.71;102175.44;5034619;28;45488;-74
2022/03/21 01:58:24;;;;;;;;;60.50;48.00;;;;;26.06;21.86;102196.16;5039437;28;45313;-74
2022/03/21 02:00:51;;;;;;;;;59.00;48.50;;;;;25.63;21.69;102136.34;5053417;28;45419;-74
2022/03/21 02:03:18;;;;;;;;;61.75;48.75;;;;;26.08;22.17;102213.34;5053452;28;45321;-73
2022/03/21 02:05:47;;;;;;;;;54.25;46.25;;;;;26.14;21.98;102205.03;5053516;28;45408;-74
2022/03/21 02:08:13;;;;;;;;;58.75;47.50;;;;;26.14;21.79;102207.75;5053778;28;45526;-74
2022/03/21 02:10:39;;;;;;;;;59.50;47.50;;;;;26.13;21.98;102209.59;5053531;28;45582;-74
2022/03/21 02:13:06;;;;;;;;;58.00;49.50;;;;;26.08;22.09;102197.03;5054804;28;45593;-73
2022/03/21 02:15:31;;;;;;;;;55.00;44.67;;;;;25.98;21.77;102207.19;5055404;28;45431;-73
2022/03/21 02:18:01;;;;;;;;;52.75;45.25;;;;;25.97;21.92;102199.94;5057536;28;45688;-73
2022/03/21 02:20:30;;;;;;;;;57.50;46.00;;;;;25.91;21.80;102191.94;5057284;28;45569;-73
2022/03/21 02:23:08;;;;;;;;;56.75;45.50;;;;;25.96;22.21;102199.06;5057167;28;45429;-73
2022/03/21 02:25:41;;;;;;;;;57.75;47.75;;;;;25.95;21.86;102202.72;5051603;28;45424;-73
2022/03/21 02:28:09;;;;;;;;;57.50;48.50;;;;;25.95;22.30;102193.63;5052408;28;45246;-73
2022/03/21 02:30:41;;;;;;;;;54.00;44.50;;;;;25.92;22.38;102191.91;5048578;28;45412;-73
2022/03/21 02:33:07;;;;;;;;;59.25;47.50;;;;;25.75;22.12;102170.53;5056863;28;45414;-73
2022/03/21 02:35:33;;;;;;;;;60.00;48.25;;;;;25.56;22.63;102147.41;5056887;28;45478;-73
2022/03/21 02:38:00;;;;;;;;;55.25;44.00;;;;;25.82;22.29;102185.78;5057738;28;45390;-73
2022/03/21 02:40:26;;;;;;;;;52.00;44.25;;;;;25.68;22.42;102175.22;5042150;28;46191;-73
2022/03/21 02:42:55;;;;;;;;;57.75;44.75;;;;;25.64;22.57;102184.34;5036959;28;45414;-73
2022/03/21 02:45:20;;;;;;;;;57.50;46.00;;;;;25.40;22.55;102146.81;5050034;28;45525;-74
2022/03/21 02:47:46;;;;;;;;;56.75;43.75;;;;;25.64;22.21;102176.19;5077504;27;45257;-73
2022/03/21 02:50:16;;;;;;;;;57.50;46.75;;;;;25.71;22.10;102170.63;5077067;27;46125;-73
2022/03/21 02:52:42;;;;;;;;;59.75;44.25;;;;;25.66;22.54;102168.91;5077550;27;45629;-73
2022/03/21 02:55:08;;;;;;;;;57.50;45.25;;;;;25.67;22.31;102165.25;5077582;27;45466;-73
2022/03/21 02:57:33;;;;;;;;;55.75;45.50;;;;;25.84;22.53;102178.47;5062627;28;45530;-73
2022/03/21 02:59:59;;;;;;;;;63.25;49.25;;;;;25.94;21.95;102181.00;5056857;28;45400;-73
2022/03/21 03:02:25;;;;;;;;;61.25;50.00;;;;;26.07;22.13;102195.25;5056337;28;45983;-73
2022/03/21 03:04:52;;;;;;;;;58.25;49.50;;;;;26.13;21.87;102179.69;5055833;28;45545;-73
2022/03/21 03:07:18;;;;;;;;;56.25;45.25;;;;;26.07;22.27;102190.69;5055811;28;45522;-73
2022/03/21 03:09:43;;;;;;;;;56.50;43.75;;;;;25.84;22.45;102177.59;5055534;28;46308;-73
2022/03/21 03:12:10;;;;;;;;;52.25;43.00;;;;;25.64;22.57;102146.31;5055620;28;45371;-73
2022/03/21 03:14:35;;;;;;;;;54.25;43.00;;;;;25.84;22.38;102199.34;5056688;28;45670;-73
2022/03/21 03:17:01;;;;;;;;;58.50;47.00;;;;;25.73;22.66;102177.81;5056271;28;45405;-73
2022/03/21 03:19:27;;;;;;;;;54.25;45.50;;;;;25.74;22.60;102192.28;5056892;28;45657;-73
2022/03/21 03:21:53;;;;;;;;;54.25;44.00;;;;;25.73;22.62;102188.69;5056304;28;45438;-73
2022/03/21 03:24:21;;;;;;;;;59.50;48.50;;;;;25.80;22.68;102184.91;5055757;28;45356;-73
2022/03/21 03:26:47;;;;;;;;;56.50;46.25;;;;;25.53;22.40;102132.06;5056608;28;45420;-72
2022/03/21 03:29:12;;;;;;;;;57.50;47.50;;;;;25.71;22.38;102163.38;5056491;28;45232;-73
2022/03/21 03:31:39;;;;;;;;;55.25;44.50;;;;;25.68;23.01;102177.94;5056662;28;45471;-72
2022/03/21 03:34:04;;;;;;;;;59.00;46.00;;;;;25.78;22.89;102186.78;5056861;28;45499;-72
2022/03/21 03:36:30;;;;;;;;;55.50;42.25;;;;;25.73;22.62;102188.69;5056583;28;45416;-72
2022/03/21 03:38:56;;;;;;;;;56.00;46.00;;;;;25.75;22.72;102194.09;5056301;28;46035;-73
2022/03/21 03:41:21;;;;;;;;;54.75;44.25;;;;;25.61;23.18;102175.34;5056417;28;45420;-72
2022/03/21 03:43:47;;;;;;;;;60.00;47.50;;;;;25.36;23.12;102143.28;5056724;28;45491;-72
2022/03/21 03:46:14;;;;;;;;;56.00;45.00;;;;;25.56;23.10;102172.75;5056479;28;45536;-72
2022/03/21 03:48:41;;;;;;;;;55.67;45.33;;;;;25.72;22.89;102186.00;5056236;28;46169;-72
2022/03/21 03:51:07;;;;;;;;;56.00;45.75;;;;;25.79;22.78;102188.53;5056335;28;45343;-72
2022/03/21 03:53:33;;;;;;;;;52.75;42.25;;;;;25.83;22.71;102205.69;5056247;28;45436;-72
2022/03/21 03:55:58;;;;;;;;;52.00;41.00;;;;;25.66;22.55;102176.16;5054718;28;45502;-72
2022/03/21 03:58:23;;;;;;;;;53.00;44.00;;;;;25.52;22.83;102147.44;5055983;28;45967;-72
2022/03/21 04:00:51;;;;;;;;;58.25;48.50;;;;;25.42;22.73;102137.72;5056374;28;45644;-72
2022/03/21 04:06:02;;;;;;;;;54.33;42.67;;;;;26.01;22.76;102205.31;5056393;28;45495;-72
2022/03/21 04:08:28;;;;;;;;;59.75;49.25;;;;;25.82;22.36;102165.84;5055684;28;45470;-72
2022/03/21 04:10:53;;;;;;;;;60.75;46.75;;;;;25.63;22.91;102141.78;5055796;28;45558;-72
2022/03/21 04:13:19;;;;;;;;;53.50;46.00;;;;;26.17;22.21;102202.25;5056226;28;45389;-73
2022/03/21 04:15:44;;;;;;;;;55.50;43.50;;;;;26.18;22.28;102206.75;5056107;28;45556;-72
2022/03/21 04:18:10;;;;;;;;;48.50;35.00;;;;;26.22;22.41;102210.31;5056060;28;46442;-72
2022/03/21 04:20:37;;;;;;;;;57.50;47.50;;;;;26.10;22.58;102206.03;5055710;28;45405;-72
2022/03/21 04:23:04;;;;;;;;;57.00;44.25;;;;;26.15;22.16;102199.56;5055564;28;45274;-72
2022/03/21 04:25:30;;;;;;;;;59.75;47.00;;;;;26.26;22.46;102222.88;5055875;28;45398;-72
2022/03/21 04:27:56;;;;;;;;;58.25;45.75;;;;;26.23;22.49;102220.25;5055694;28;45477;-72
2022/03/21 04:30:23;;;;;;;;;53.50;42.75;;;;;26.17;22.47;102219.47;5055699;28;45467;-72
2022/03/21 04:32:49;;;;;;;;;53.50;43.25;;;;;26.17;22.36;102230.34;5055771;28;45457;-72
2022/03/21 04:35:15;;;;;;;;;55.25;45.50;;;;;26.15;22.68;102224.03;5055254;28;45528;-72
2022/03/21 04:37:40;;;;;;;;;59.50;45.00;;;;;26.13;22.33;102212.31;5055025;28;46210;-72
2022/03/21 04:40:07;;;;;;;;;52.33;41.00;;;;;26.16;22.49;102223.13;5055690;28;45407;-72
2022/03/21 04:42:37;;;;;;;;;57.25;46.50;;;;;26.13;22.39;102189.63;5055798;28;45497;-72
2022/03/21 04:45:04;;;;;;;;;59.00;47.25;;;;;26.41;22.45;102227.09;5055462;28;45453;-72
2022/03/21 04:47:30;;;;;;;;;57.75;47.25;;;;;26.48;22.23;102237.78;5054013;28;48659;-72
2022/03/21 04:49:59;;;;;;;;;56.25;45.25;;;;;26.47;22.29;102235.09;5055202;28;45477;-72
2022/03/21 04:52:25;;;;;;;;;56.75;43.25;;;;;26.29;22.57;102228.28;5055128;28;45541;-72
2022/03/21 04:54:50;;;;;;;;;56.25;44.25;;;;;26.52;22.33;102247.66;5055405;28;45505;-72
2022/03/21 04:57:20;;;;;;;;;57.00;45.00;;;;;26.35;22.39;102229.00;5055420;28;46040;-72
2022/03/21 04:59:45;;;;;;;;;53.50;45.00;;;;;26.46;22.26;102249.66;5055014;28;45363;-72
2022/03/21 05:02:11;;;;;;;;;57.75;44.75;;;;;26.43;22.44;102249.72;5055177;28;45919;-72
2022/03/21 05:04:37;;;;;;;;;52.25;44.50;;;;;26.29;22.24;102218.28;5055683;28;45270;-72
2022/03/21 05:07:06;;;;;;;;;58.00;46.75;;;;;26.49;22.48;102258.63;5054775;28;46086;-72
2022/03/21 05:09:31;;;;;;;;;53.50;43.25;;;;;26.51;22.24;102256.78;5055313;28;45500;-72
2022/03/21 05:11:56;;;;;;;;;55.25;43.00;;;;;26.46;22.09;102255.97;5055158;28;45369;-72
2022/03/21 05:14:22;;;;;;;;;52.00;42.33;;;;;26.41;22.54;102224.34;5055466;28;45453;-72
2022/03/21 05:16:48;;;;;;;;;54.25;42.75;;;;;26.48;22.30;102256.84;5055020;28;45459;-72
2022/03/21 05:19:14;;;;;;;;;52.00;45.25;;;;;26.28;22.31;102219.19;5053725;28;45386;-72
2022/03/21 05:21:40;;;;;;;;;48.00;41.25;;;;;26.57;22.28;102258.44;5054626;28;45403;-72
2022/03/21 05:32:19;;;;;;;;;55.00;44.50;;;;;26.52;22.21;102266.69;5055142;28;45358;-72
2022/03/21 05:37:28;;;;;;;;;60.25;49.00;;;;;26.47;22.67;102263.22;5054637;28;45349;-72
2022/03/21 05:42:57;;;;;;;;;60.25;46.75;;;;;26.51;22.23;102261.28;5032526;28;45486;-74
2022/03/21 05:45:24;;;;;;;;;61.75;46.75;;;;;26.50;22.35;102259.53;5032172;28;48173;-75
2022/03/21 05:50:35;;;;;;;;;53.75;42.50;;;;;26.24;22.46;102233.81;5035589;28;45434;-74
2022/03/21 05:53:02;;;;;;;;;53.75;43.00;;;;;26.40;22.81;102285.16;5035485;28;45359;-74
2022/03/21 05:55:29;;;;;;;;;60.00;47.00;;;;;26.18;22.56;102226.69;5035756;28;45464;-74
2022/03/21 05:57:55;;;;;;;;;55.75;43.75;;;;;26.39;22.46;102283.38;5035242;28;46543;-74
2022/03/21 06:00:20;;;;;;;;;58.00;46.25;;;;;26.12;23.10;102237.72;5035452;28;45555;-74
2022/03/21 06:02:46;;;;;;;;;49.00;42.67;;;;;26.34;22.88;102286.19;5035615;28;46087;-74
2022/03/21 06:05:11;;;;;;;;;57.50;46.25;;;;;26.17;22.78;102259.38;5035008;28;45572;-74
2022/03/21 06:07:37;;;;;;;;;56.00;43.33;;;;;26.42;22.85;102288.75;5035120;28;46027;-73
2022/03/21 06:10:02;;;;;;;;;59.50;49.50;;;;;26.35;22.99;102288.88;5035157;28;45441;-73
2022/03/21 06:12:29;;;;;;;;;64.50;51.00;;;;;26.30;23.09;102282.66;5035072;28;45529;-73
2022/03/21 06:14:55;;;;;;;;;57.75;45.50;;;;;25.91;22.74;102220.03;5057609;28;45534;-73
2022/03/21 06:17:20;;;;;;;;;61.25;48.75;;;;;26.27;22.74;102288.19;5057569;28;46714;-73
2022/03/21 06:19:45;;;;;;;;;57.75;46.50;;;;;26.34;23.07;102308.88;5057453;28;45538;-75
2022/03/21 06:22:11;;;;;;;;;57.25;46.50;;;;;25.95;22.66;102242.59;5057158;28;45344;-75
2022/03/21 06:24:36;;;;;;;;;50.67;41.33;;;;;26.25;22.78;102310.91;5057773;28;45365;-76
2022/03/21 06:27:01;;;;;;;;;57.50;46.75;;;;;26.28;23.01;102313.53;5057482;28;46145;-75
2022/03/21 06:29:28;;;;;;;;;50.67;41.00;;;;;26.27;23.15;102315.38;5058058;28;45453;-75
2022/03/21 06:31:53;;;;;;;;;56.50;46.00;;;;;26.25;23.25;102325.38;5057783;28;45459;-76
2022/03/21 06:34:19;;;;;;;;;64.25;51.00;;;;;26.05;23.00;102304.06;5057114;28;45399;-76
2022/03/21 06:36:44;;;;;;;;;57.00;45.75;;;;;26.22;23.46;102330.00;5057454;28;46412;-76
2022/03/21 06:39:09;;;;;;;;;59.25;48.25;;;;;26.27;22.98;102323.53;5057304;28;45424;-76
2022/03/21 06:41:35;;;;;;;;;56.50;45.75;;;;;26.19;23.40;102314.66;5057436;28;46619;-75
2022/03/21 06:44:00;;;;;;;;;57.00;45.00;;;;;26.25;22.84;102327.22;5057304;28;45332;-76
2022/03/21 06:46:26;;;;;;;;;57.50;46.75;;;;;26.45;23.25;102332.22;5057087;28;46663;-78
2022/03/21 06:48:51;;;;;;;;;56.25;46.50;;;;;26.58;22.55;102339.19;5056547;28;45364;-75
2022/03/21 06:51:16;;;;;;;;;58.50;47.75;;;;;26.54;22.97;102322.00;5057361;28;45459;-75
2022/03/21 06:53:42;;;;;;;;;60.50;45.50;;;;;26.62;23.33;102335.44;5057254;28;45315;-75
2022/03/21 06:56:07;;;;;;;;;56.50;46.75;;;;;26.70;22.88;102332.56;5043650;28;45799;-75
2022/03/21 06:58:32;;;;;;;;;56.00;45.00;;;;;26.70;22.49;102318.97;5036501;28;45621;-75
2022/03/21 07:01:01;;;;;;;;;53.00;41.67;;;;;26.94;22.65;102347.41;5036739;28;46082;-76
2022/03/21 07:03:26;;;;;;;;;56.00;43.67;;;;;26.90;22.65;102337.53;5034552;28;45319;-75
2022/03/21 07:05:52;;;;;;;;;53.67;44.00;;;;;26.73;23.14;102320.72;5042071;28;45376;-76
2022/03/21 07:08:17;;;;;;;;;54.75;46.50;;;;;26.85;22.91;102339.50;5037118;28;45367;-76
2022/03/21 07:10:44;;;;;;;;;57.25;44.50;;;;;26.86;22.81;102323.13;5048481;28;45412;-75
2022/03/21 07:13:10;;;;;;;;;56.00;43.33;;;;;26.92;22.78;102310.25;5056516;28;46110;-75
2022/03/21 07:15:40;;;;;;;;;56.00;43.00;;;;;26.88;22.89;102287.66;5068594;28;46238;-75
2022/03/21 07:18:05;;;;;;;;;52.00;39.67;;;;;27.33;22.86;102350.06;5076510;27;45494;-75
2022/03/21 07:20:31;;;;;;;;;52.33;43.33;;;;;27.38;22.97;102337.28;5053985;27;45336;-74
2022/03/21 07:22:58;;;;;;;;;56.75;45.00;;;;;27.55;22.73;102346.81;5038836;28;45397;-75
2022/03/21 07:25:24;;;;;;;;;54.50;44.50;;;;;27.47;22.49;102321.63;5057914;27;46209;-75
2022/03/21 07:27:50;;;;;;;;;51.50;43.50;;;;;27.71;22.58;102360.94;5056306;28;45497;-75
2022/03/21 07:30:16;;;;;;;;;59.00;45.00;;;;;27.71;22.30;102355.47;5056381;28;45492;-74
2022/03/21 07:32:42;;;;;;;;;51.67;44.00;;;;;27.83;22.46;102362.41;5063490;28;45528;-75
2022/03/21 07:35:08;;;;;;;;;52.67;41.67;;;;;27.73;22.39;102343.59;5075967;27;46610;-75
2022/03/21 07:37:42;;;;;;;;;42.33;37.33;;;;;27.25;22.43;102308.50;5074268;28;45653;-74
2022/03/21 07:40:10;;;;;;;;;44.00;38.00;;;;;27.32;22.54;102337.38;5076025;27;45555;-75
2022/03/21 07:42:37;;;;;;;;;36.00;33.00;;;;;27.12;23.58;102367.00;5067952;27;45474;-74
2022/03/21 07:47:46;;;;;;;;;54.00;42.00;;;;;26.87;23.48;102334.88;5069292;27;45465;-75
2022/03/21 07:50:12;;;;;;;;;49.00;39.33;;;;;27.04;23.20;102361.72;5067345;27;45423;-74
2022/03/21 07:52:37;;;;;;;;;53.33;39.67;;;;;27.02;23.46;102345.41;5055998;28;45579;-75
2022/03/21 07:55:03;;;;;;;;;46.33;39.33;;;;;27.00;23.24;102366.34;5055934;28;45660;-75
2022/03/21 07:57:29;;;;;;;;;44.00;36.00;;;;;27.13;23.12;102366.94;5063211;28;45817;-75
2022/03/21 07:59:54;;;;;;;;;47.33;37.00;;;;;27.32;22.85;102334.66;5055710;28;45552;-74
2022/03/21 08:02:21;;;;;;;;;40.00;34.67;;;;;27.57;22.89;102372.22;5051315;28;45412;-75
2022/03/21 08:04:47;;;;;;;;;39.33;34.00;;;;;26.97;23.58;102358.22;5051590;28;45595;-75
2022/03/21 08:07:14;;;;;;;;;39.00;34.00;;;;;26.82;23.11;102369.50;5039939;28;45484;-75
2022/03/21 08:09:40;;;;;;;;;34.67;33.33;;;;;27.10;22.90;102347.97;5049710;28;45368;-74
2022/03/21 08:12:06;;;;;;;;;46.00;34.33;;;;;27.34;22.68;102365.50;5053851;28;45342;-75
2022/03/21 08:14:31;;;;;;;;;46.67;36.00;;;;;27.49;22.92;102380.56;5042526;28;45625;-75
2022/03/21 08:16:58;;;;;;;;;37.33;35.00;;;;;27.00;22.87;102332.75;5038598;28;45481;-75
2022/03/21 08:19:24;;;;;;;;;39.33;34.00;;;;;26.96;23.07;102331.03;5050376;28;45629;-76
2022/03/21 08:21:53;;;;;;;;;41.67;34.00;;;;;27.51;22.92;102377.81;5049445;28;45455;-73
2022/03/21 08:24:20;;;;;;;;;37.33;34.00;;;;;27.53;22.41;102376.84;5044868;28;46274;-73
2022/03/21 08:26:46;;;;;;;;;40.00;31.33;;;;;27.77;22.50;102381.69;5053883;28;45962;-73
2022/03/21 08:29:11;;;;;;;;;31.67;29.33;;;;;27.82;22.29;102363.34;5054721;28;45305;-74
2022/03/21 08:31:36;;;;;;;;;28.67;28.00;;;;;27.90;22.35;102388.56;5051844;28;45365;-74
2022/03/21 08:34:05;;;;;;;;;28.00;28.00;;;;;27.90;21.96;102377.66;5042040;28;45982;-75
2022/03/21 08:36:31;;;;;;;;;35.00;29.00;;;;;28.06;22.14;102380.91;5041839;28;45476;-73
2022/03/21 08:38:57;;;;;;;;;22.33;22.33;;;;;28.19;22.01;102385.03;5044137;28;45490;-75
2022/03/21 08:41:23;;;;;;;;;27.67;26.67;;;;;27.97;22.26;102386.56;5053208;28;45552;-75
2022/03/21 08:43:48;;;;;;;;;28.00;23.67;;;;;28.02;21.90;102366.44;5057570;28;45941;-75
2022/03/21 08:46:14;;;;;;;;;29.67;27.67;;;;;27.99;21.80;102365.63;5050891;28;45491;-74
2022/03/21 08:51:23;;;;;;;;;27.00;23.67;;;;;27.39;21.92;102387.22;5062093;28;45691;-74
2022/03/21 08:53:50;;;;;;;;;28.67;23.67;;;;;27.49;22.04;102366.06;5062533;28;46765;-74
2022/03/21 08:56:16;;;;;;;;;20.00;19.00;;;;;27.70;21.97;102392.75;5051103;28;45596;-74
2022/03/21 08:58:41;;;;;;;;;24.00;24.00;;;;;27.84;21.83;102376.00;5054237;28;45320;-75
2022/03/21 09:01:06;;;;;;;;;27.00;24.67;;;;;27.15;22.42;102331.47;5054255;28;45408;-75
2022/03/21 09:03:32;;;;;;;;;23.00;19.67;;;;;27.53;21.95;102384.13;5055448;28;46315;-75
2022/03/21 09:05:57;;;;;;;;;26.33;21.00;;;;;27.52;22.23;102368.69;5057549;28;45443;-75
2022/03/21 09:08:22;;;;;;;;;20.00;19.33;;;;;27.54;22.30;102375.03;5057669;27;45449;-76
2022/03/21 09:10:48;;;;;;;;;36.00;29.00;;;;;27.27;22.70;102350.25;5054435;28;45634;-75
2022/03/21 09:13:14;;;;;;;;;29.67;28.67;;;;;27.38;22.53;102375.44;5049409;28;45532;-78
2022/03/21 09:15:41;;;;;;;;;33.00;27.00;;;;;27.49;22.40;102356.03;5055638;28;45577;-78
2022/03/21 09:18:06;;;;;;;;;31.67;28.00;;;;;27.58;22.20;102326.75;5051388;28;45547;-79
2022/03/21 09:20:31;;;;;;;;;24.33;24.00;;;;;27.60;22.11;102343.97;5053043;28;45352;-78
2022/03/21 09:22:57;;;;;;;;;27.67;26.67;;;;;27.76;21.87;102356.22;5058682;28;47831;-77
2022/03/21 09:25:22;;;;;;;;;29.67;23.67;;;;;27.96;22.08;102350.22;5060242;28;45456;-77
2022/03/21 09:27:48;;;;;;;;;32.67;29.67;;;;;28.14;21.93;102381.53;5057952;28;45559;-78
2022/03/21 09:30:13;;;;;;;;;29.33;25.67;;;;;28.24;21.43;102330.31;5051292;28;45395;-78
2022/03/21 09:32:39;;;;;;;;;28.00;25.67;;;;;28.55;21.46;102370.31;5058170;28;45574;-78
2022/03/21 09:35:05;;;;;;;;;29.00;27.00;;;;;28.64;21.59;102370.09;5061055;28;45437;-77
2022/03/21 09:37:32;;;;;;;;;31.67;28.33;;;;;28.81;21.32;102371.41;5056817;28;45357;-77
2022/03/21 09:39:58;;;;;;;;;23.67;22.33;;;;;29.03;21.03;102371.56;5057945;28;45487;-78
2022/03/21 09:42:24;;;;;;;;;29.67;27.00;;;;;29.14;21.11;102368.47;5057245;28;46174;-78
2022/03/21 09:44:53;;;;;;;;;28.67;23.33;;;;;29.04;21.08;102336.00;5055436;28;45570;-79
2022/03/21 09:50:12;;;;;;;;;31.00;26.33;;;;;28.99;21.13;102343.47;5055612;28;45426;-79
2022/03/21 09:52:38;;;;;;;;;33.67;24.00;;;;;29.15;21.18;102364.81;5057369;28;45551;-79
2022/03/21 09:55:05;;;;;;;;;26.00;23.67;;;;;28.86;21.19;102362.09;5063703;28;45413;-79
2022/03/21 09:57:33;;;;;;;;;26.67;25.33;;;;;28.30;21.86;102300.13;5061322;28;45419;-79
2022/03/21 09:59:59;;;;;;;;;32.00;25.67;;;;;28.48;21.76;102317.78;5057501;28;45545;-78
2022/03/21 10:02:25;;;;;;;;;27.00;23.00;;;;;28.79;21.50;102329.56;5058378;28;46201;-79
2022/03/21 10:04:52;;;;;;;;;31.00;28.67;;;;;29.02;21.47;102346.09;5056949;28;45452;-79
2022/03/21 10:07:25;;;;;;;;;28.67;25.67;;;;;29.15;21.41;102345.69;5071717;27;45606;-78
2022/03/21 10:10:12;;;;;;;;;21.67;21.67;;;;;29.24;21.25;102342.66;5073793;28;45544;-82
2022/03/21 10:12:39;;;;;;;;;26.33;21.67;;;;;28.96;20.71;102257.97;5078093;27;46209;-79
2022/03/21 10:15:06;;;;;;;;;25.00;18.33;;;;;29.63;20.64;102339.44;5057659;28;45355;-79
2022/03/21 10:17:32;;;;;;;;;26.33;20.00;;;;;29.49;21.06;102339.06;5057606;28;45380;-79
2022/03/21 10:19:58;;;;;;;;;23.33;22.33;;;;;29.35;20.92;102340.47;5057624;28;45417;-77
2022/03/21 10:22:43;;;;;;;;;25.00;24.00;;;;;29.57;20.90;102339.69;5049652;28;45305;-79
2022/03/21 10:25:17;;;;;;;;;19.33;16.00;;;;;29.69;20.79;102322.84;5059794;27;45414;-79
2022/03/21 10:27:47;;;;;;;;;22.67;18.33;;;;;29.74;20.67;102312.59;5058301;28;45576;-80
2022/03/21 10:30:15;;;;;;;;;19.67;18.00;;;;;29.82;20.87;102328.75;5063320;28;45462;-78
2022/03/21 10:32:42;;;;;;;;;15.00;14.00;;;;;29.87;20.36;102326.78;5052661;28;45567;-79
2022/03/21 10:35:18;;;;;;;;;23.33;22.00;;;;;29.74;20.55;102326.28;5057489;28;45455;-78
2022/03/21 10:37:45;;;;;;;;;19.00;17.67;;;;;29.82;20.54;102322.34;5057157;28;45523;-78
2022/03/21 10:40:16;;;;;;;;;18.00;16.33;;;;;29.80;20.49;102321.53;5053932;28;45606;-78
2022/03/21 10:43:03;;;;;;;;;12.00;11.67;;;;;29.90;21.08;102323.91;5062550;28;45403;-79
2022/03/21 10:45:35;;;;;;;;;12.33;12.33;;;;;30.19;20.66;102321.00;5053658;28;45547;-79
2022/03/21 10:48:05;;;;;;;;;12.00;10.67;;;;;29.84;20.14;102272.13;5055485;28;45719;-79
2022/03/21 10:50:36;;;;;;;;;15.00;14.00;;;;;30.01;20.41;102315.28;5053715;28;45451;-79
2022/03/21 10:53:07;;;;;;;;;10.33;9.67;;;;;30.21;20.37;102313.63;5052454;28;45523;-79
2022/03/21 10:55:33;;;;;;;;;11.33;11.33;;;;;30.29;20.42;102295.03;5055138;28;45384;-80
2022/03/21 10:57:58;;;;;;;;;10.67;9.67;;;;;30.25;20.14;102276.94;5060220;28;45528;-79
2022/03/21 11:00:31;;;;;;;;;12.33;10.00;;;;;30.37;20.46;102283.81;5071569;28;45304;-79
2022/03/21 11:03:09;;;;;;;;;13.00;12.00;;;;;30.60;20.36;102323.97;5062810;28;46283;-78
2022/03/21 11:05:43;;;;;;;;;13.33;13.00;;;;;30.70;20.16;102308.94;5058749;28;45489;-78
2022/03/21 11:08:11;;;;;;;;;17.00;17.00;;;;;29.91;19.79;102264.59;5062743;28;45402;-77
2022/03/21 11:10:38;;;;;;;;;14.33;14.33;;;;;30.31;20.07;102282.19;5088262;27;45347;-77
2022/03/21 11:13:05;;;;;;;;;15.33;14.33;;;;;30.42;20.18;102257.09;5054977;28;46256;-76
2022/03/21 11:15:35;;;;;;;;;16.00;15.67;;;;;30.84;19.54;102297.38;5052238;28;45428;-78
2022/03/21 11:18:02;;;;;;;;;16.00;15.00;;;;;30.80;19.86;102287.50;5053102;28;45482;-77
2022/03/21 11:20:30;;;;;;;;;14.67;14.67;;;;;30.85;20.02;102287.34;5055925;28;45556;-80
2022/03/21 11:22:57;;;;;;;;;20.33;16.67;;;;;30.78;20.16;102253.81;5050837;28;45455;-78
2022/03/21 11:25:32;;;;;;;;;17.00;13.00;;;;;30.81;20.05;102247.31;5048363;28;45899;-79
2022/03/21 11:28:38;;;;;;;;;11.67;11.67;;;;;31.23;19.85;102285.69;5074172;27;45509;-79
2022/03/21 11:31:32;;;;;;;;;14.33;13.33;;;;;31.22;19.60;102288.53;5041323;27;45558;-79
2022/03/21 11:34:15;;;;;;;;;17.33;14.33;;;;;31.25;19.41;102286.53;5049251;28;46635;-77
2022/03/21 11:37:23;;;;;;;;;11.67;11.67;;;;;31.17;19.91;102282.34;5042747;28;45651;-79
2022/03/21 11:39:49;;;;;;;;;17.00;15.67;;;;;31.29;19.96;102279.97;5047069;28;45525;-83